Beaver, West Virginia
Current Conditions -  °F | °C
As of 1:37 PM on Monday 26 Jan 2015 (Local Time) from KBKW Reporting Station
Light Snow Light Snow  
Wind Chill: 25°   Ceiling: 600
Heat Index: 32°   Visibility: 0.75mi
Dew Point: 29°   Wind: 8mph
Humidity: 88%   Direction: 290°WNW
Pressure: 29.65"   Gusts: NA
Location:  37.74°N, 81.15°W
Report Text: KBKW 261837Z AUTO 29007KT 3/4SM -SN BR OVC006 00/M02 A2965 RMK AO2 SNB1757 P0001 T00001017
Loading
Personal Weather Stations






























Interactive Weather Map New forecast layout! Learn more

10-Day Weather Forecast

Advertisements
Track Severe Weather on mobile